sensor_id;sensor_type;location;lat;lon;timestamp;temperature;humidity
14405;DHT22;14983;50.866;4.304;2022-09-12T00:00:19;16.60;99.90
14405;DHT22;14983;50.866;4.304;2022-09-12T00:02:55;16.60;99.90
14405;DHT22;14983;50.866;4.304;2022-09-12T00:05:22;16.60;99.90
14405;DHT22;14983;50.866;4.304;2022-09-12T00:07:49;16.70;99.90
14405;DHT22;14983;50.866;4.304;2022-09-12T00:10:17;16.70;99.90
14405;DHT22;14983;50.866;4.304;2022-09-12T00:12:44;16.60;99.90
14405;DHT22;14983;50.866;4.304;2022-09-12T00:15:11;16.60;99.90
14405;DHT22;14983;50.866;4.304;2022-09-12T00:17:39;16.60;99.90
14405;DHT22;14983;50.866;4.304;2022-09-12T00:20:12;16.60;99.90
14405;DHT22;14983;50.866;4.304;2022-09-12T00:22:39;16.60;99.90
14405;DHT22;14983;50.866;4.304;2022-09-12T00:25:07;16.60;99.90
14405;DHT22;14983;50.866;4.304;2022-09-12T00:27:35;16.60;99.90
14405;DHT22;14983;50.866;4.304;2022-09-12T00:30:03;16.70;99.90
14405;DHT22;14983;50.866;4.304;2022-09-12T00:32:30;16.70;99.90
14405;DHT22;14983;50.866;4.304;2022-09-12T00:34:57;16.70;99.90
14405;DHT22;14983;50.866;4.304;2022-09-12T00:37:27;16.60;99.90
14405;DHT22;14983;50.866;4.304;2022-09-12T00:39:55;16.70;99.90
14405;DHT22;14983;50.866;4.304;2022-09-12T00:42:22;16.50;99.90
14405;DHT22;14983;50.866;4.304;2022-09-12T00:44:50;16.60;99.90
14405;DHT22;14983;50.866;4.304;2022-09-12T00:47:24;16.60;99.90
14405;DHT22;14983;50.866;4.304;2022-09-12T00:49:59;16.60;99.90
14405;DHT22;14983;50.866;4.304;2022-09-12T00:52:32;16.50;99.90
14405;DHT22;14983;50.866;4.304;2022-09-12T00:55:04;16.60;99.90
14405;DHT22;14983;50.866;4.304;2022-09-12T00:57:36;16.60;99.90
14405;DHT22;14983;50.866;4.304;2022-09-12T01:00:08;16.50;99.90
14405;DHT22;14983;50.866;4.304;2022-09-12T01:02:39;16.50;99.90
14405;DHT22;14983;50.866;4.304;2022-09-12T01:05:07;16.50;99.90
14405;DHT22;14983;50.866;4.304;2022-09-12T01:07:39;16.60;99.90
14405;DHT22;14983;50.866;4.304;2022-09-12T01:10:08;16.50;99.90
14405;DHT22;14983;50.866;4.304;2022-09-12T01:12:42;16.60;99.90
14405;DHT22;14983;50.866;4.304;2022-09-12T01:15:11;16.60;99.90
14405;DHT22;14983;50.866;4.304;2022-09-12T01:17:57;16.60;99.90
14405;DHT22;14983;50.866;4.304;2022-09-12T01:20:40;16.60;99.90
14405;DHT22;14983;50.866;4.304;2022-09-12T01:30:04;16.60;99.90
14405;DHT22;14983;50.866;4.304;2022-09-12T01:32:44;16.50;99.90
14405;DHT22;14983;50.866;4.304;2022-09-12T01:35:18;16.50;99.90
14405;DHT22;14983;50.866;4.304;2022-09-12T01:37:53;16.40;99.90
14405;DHT22;14983;50.866;4.304;2022-09-12T01:40:30;16.40;99.90
14405;DHT22;14983;50.866;4.304;2022-09-12T01:43:05;16.40;99.90
14405;DHT22;14983;50.866;4.304;2022-09-12T01:45:38;16.30;99.90
14405;DHT22;14983;50.866;4.304;2022-09-12T01:48:13;16.20;99.90
14405;DHT22;14983;50.866;4.304;2022-09-12T01:50:49;16.20;99.90
14405;DHT22;14983;50.866;4.304;2022-09-12T01:53:21;16.10;99.90
14405;DHT22;14983;50.866;4.304;2022-09-12T01:55:52;16.10;99.90
14405;DHT22;14983;50.866;4.304;2022-09-12T01:58:25;16.20;99.90
14405;DHT22;14983;50.866;4.304;2022-09-12T02:00:59;16.00;99.90
14405;DHT22;14983;50.866;4.304;2022-09-12T02:03:32;16.10;99.90
14405;DHT22;14983;50.866;4.304;2022-09-12T02:06:04;16.00;99.90
14405;DHT22;14983;50.866;4.304;2022-09-12T02:08:36;16.00;99.90
14405;DHT22;14983;50.866;4.304;2022-09-12T02:11:09;16.00;99.90
14405;DHT22;14983;50.866;4.304;2022-09-12T02:13:40;15.90;99.90
14405;DHT22;14983;50.866;4.304;2022-09-12T02:16:10;15.90;99.90
14405;DHT22;14983;50.866;4.304;2022-09-12T02:18:44;15.90;99.90
14405;DHT22;14983;50.866;4.304;2022-09-12T02:21:12;15.90;99.90
14405;DHT22;14983;50.866;4.304;2022-09-12T02:23:45;15.90;99.90
14405;DHT22;14983;50.866;4.304;2022-09-12T02:26:20;15.90;99.90
14405;DHT22;14983;50.866;4.304;2022-09-12T02:28:49;16.00;99.90
14405;DHT22;14983;50.866;4.304;2022-09-12T02:31:22;15.90;99.90
14405;DHT22;14983;50.866;4.304;2022-09-12T02:34:01;15.90;99.90
14405;DHT22;14983;50.866;4.304;2022-09-12T02:36:35;15.90;99.90
14405;DHT22;14983;50.866;4.304;2022-09-12T02:39:05;15.80;99.90
14405;DHT22;14983;50.866;4.304;2022-09-12T02:41:32;15.70;99.90
14405;DHT22;14983;50.866;4.304;2022-09-12T02:43:59;15.80;99.90
14405;DHT22;14983;50.866;4.304;2022-09-12T02:46:41;15.80;99.90
14405;DHT22;14983;50.866;4.304;2022-09-12T02:49:12;15.80;99.90
14405;DHT22;14983;50.866;4.304;2022-09-12T02:51:39;15.70;99.90
14405;DHT22;14983;50.866;4.304;2022-09-12T02:54:06;15.70;99.90
14405;DHT22;14983;50.866;4.304;2022-09-12T02:56:35;15.60;99.90
14405;DHT22;14983;50.866;4.304;2022-09-12T02:59:06;15.60;99.90
14405;DHT22;14983;50.866;4.304;2022-09-12T03:01:57;15.60;99.90
14405;DHT22;14983;50.866;4.304;2022-09-12T03:04:48;15.50;99.90
14405;DHT22;14983;50.866;4.304;2022-09-12T03:07:29;15.50;99.90
14405;DHT22;14983;50.866;4.304;2022-09-12T03:10:03;15.50;99.90
14405;DHT22;14983;50.866;4.304;2022-09-12T03:12:44;15.50;99.90
14405;DHT22;14983;50.866;4.304;2022-09-12T03:15:21;15.50;99.90
14405;DHT22;14983;50.866;4.304;2022-09-12T03:18:02;15.40;99.90
14405;DHT22;14983;50.866;4.304;2022-09-12T03:20:43;15.40;99.90
14405;DHT22;14983;50.866;4.304;2022-09-12T03:23:18;15.50;99.90
14405;DHT22;14983;50.866;4.304;2022-09-12T03:25:53;15.50;99.90
14405;DHT22;14983;50.866;4.304;2022-09-12T03:28:22;15.50;99.90
14405;DHT22;14983;50.866;4.304;2022-09-12T03:30:50;15.50;99.90
14405;DHT22;14983;50.866;4.304;2022-09-12T03:33:20;15.50;99.90
14405;DHT22;14983;50.866;4.304;2022-09-12T03:35:50;15.50;99.90
14405;DHT22;14983;50.866;4.304;2022-09-12T03:38:18;15.40;99.90
14405;DHT22;14983;50.866;4.304;2022-09-12T03:40:45;15.40;99.90
14405;DHT22;14983;50.866;4.304;2022-09-12T03:43:12;15.40;99.90
14405;DHT22;14983;50.866;4.304;2022-09-12T03:45:39;15.40;99.90
14405;DHT22;14983;50.866;4.304;2022-09-12T03:48:07;15.40;99.90
14405;DHT22;14983;50.866;4.304;2022-09-12T03:50:37;15.40;99.90
14405;DHT22;14983;50.866;4.304;2022-09-12T03:53:06;15.40;99.90
14405;DHT22;14983;50.866;4.304;2022-09-12T03:55:33;15.40;99.90
14405;DHT22;14983;50.866;4.304;2022-09-12T03:58:01;15.40;99.90
14405;DHT22;14983;50.866;4.304;2022-09-12T04:00:28;15.40;99.90
14405;DHT22;14983;50.866;4.304;2022-09-12T04:02:56;15.30;99.90
14405;DHT22;14983;50.866;4.304;2022-09-12T04:05:23;15.30;99.90
14405;DHT22;14983;50.866;4.304;2022-09-12T04:07:50;15.30;99.90
14405;DHT22;14983;50.866;4.304;2022-09-12T04:10:21;15.20;99.90
14405;DHT22;14983;50.866;4.304;2022-09-12T04:12:48;15.20;99.90
14405;DHT22;14983;50.866;4.304;2022-09-12T04:15:15;15.20;99.90
14405;DHT22;14983;50.866;4.304;2022-09-12T04:17:42;15.20;99.90
14405;DHT22;14983;50.866;4.304;2022-09-12T04:20:10;15.20;99.90
14405;DHT22;14983;50.866;4.304;2022-09-12T04:22:38;15.10;99.90
14405;DHT22;14983;50.866;4.304;2022-09-12T04:25:06;15.20;99.90
14405;DHT22;14983;50.866;4.304;2022-09-12T04:27:35;15.20;99.90
14405;DHT22;14983;50.866;4.304;2022-09-12T04:30:04;15.20;99.90
14405;DHT22;14983;50.866;4.304;2022-09-12T04:32:32;15.20;99.90
14405;DHT22;14983;50.866;4.304;2022-09-12T04:34:58;15.10;99.90
14405;DHT22;14983;50.866;4.304;2022-09-12T04:37:26;15.10;99.90
14405;DHT22;14983;50.866;4.304;2022-09-12T04:39:53;15.10;99.90
14405;DHT22;14983;50.866;4.304;2022-09-12T04:42:22;15.10;99.90
14405;DHT22;14983;50.866;4.304;2022-09-12T04:44:50;15.10;99.90
14405;DHT22;14983;50.866;4.304;2022-09-12T04:47:17;15.20;99.90
14405;DHT22;14983;50.866;4.304;2022-09-12T04:49:44;15.30;99.90
14405;DHT22;14983;50.866;4.304;2022-09-12T04:52:12;15.30;99.90
14405;DHT22;14983;50.866;4.304;2022-09-12T04:54:40;15.30;99.90
14405;DHT22;14983;50.866;4.304;2022-09-12T04:57:07;15.30;99.90
14405;DHT22;14983;50.866;4.304;2022-09-12T04:59:38;15.20;99.90
14405;DHT22;14983;50.866;4.304;2022-09-12T05:02:06;15.20;99.90
14405;DHT22;14983;50.866;4.304;2022-09-12T05:04:34;15.30;99.90
14405;DHT22;14983;50.866;4.304;2022-09-12T05:07:07;15.20;99.90
14405;DHT22;14983;50.866;4.304;2022-09-12T05:09:36;15.20;99.90
14405;DHT22;14983;50.866;4.304;2022-09-12T05:12:04;15.20;99.90
14405;DHT22;14983;50.866;4.304;2022-09-12T05:14:32;15.20;99.90
14405;DHT22;14983;50.866;4.304;2022-09-12T05:17:01;15.20;99.90
14405;DHT22;14983;50.866;4.304;2022-09-12T05:19:32;15.20;99.90
14405;DHT22;14983;50.866;4.304;2022-09-12T05:22:02;15.30;99.90
14405;DHT22;14983;50.866;4.304;2022-09-12T05:24:31;15.30;99.90
14405;DHT22;14983;50.866;4.304;2022-09-12T05:27:02;15.30;99.90
14405;DHT22;14983;50.866;4.304;2022-09-12T05:29:35;15.30;99.90
14405;DHT22;14983;50.866;4.304;2022-09-12T05:32:03;15.20;99.90
14405;DHT22;14983;50.866;4.304;2022-09-12T05:34:33;15.20;99.90
14405;DHT22;14983;50.866;4.304;2022-09-12T05:37:00;15.20;99.90
14405;DHT22;14983;50.866;4.304;2022-09-12T05:39:27;15.20;99.90
14405;DHT22;14983;50.866;4.304;2022-09-12T05:41:57;15.20;99.90
14405;DHT22;14983;50.866;4.304;2022-09-12T05:44:26;15.20;99.90
14405;DHT22;14983;50.866;4.304;2022-09-12T05:46:57;15.20;99.90
14405;DHT22;14983;50.866;4.304;2022-09-12T05:49:24;15.20;99.90
14405;DHT22;14983;50.866;4.304;2022-09-12T05:51:53;15.20;99.90
14405;DHT22;14983;50.866;4.304;2022-09-12T05:54:21;15.30;99.90
14405;DHT22;14983;50.866;4.304;2022-09-12T05:56:49;15.20;99.90
14405;DHT22;14983;50.866;4.304;2022-09-12T05:59:18;15.20;99.90
14405;DHT22;14983;50.866;4.304;2022-09-12T06:01:47;15.20;99.90
14405;DHT22;14983;50.866;4.304;2022-09-12T06:04:20;15.20;99.90
14405;DHT22;14983;50.866;4.304;2022-09-12T06:06:55;15.20;99.90
14405;DHT22;14983;50.866;4.304;2022-09-12T06:09:22;15.30;99.90
14405;DHT22;14983;50.866;4.304;2022-09-12T06:11:51;15.50;99.90
14405;DHT22;14983;50.866;4.304;2022-09-12T06:14:18;15.10;99.90
14405;DHT22;14983;50.866;4.304;2022-09-12T06:16:46;15.10;99.90
14405;DHT22;14983;50.866;4.304;2022-09-12T06:19:17;15.20;99.90
14405;DHT22;14983;50.866;4.304;2022-09-12T06:21:48;15.20;99.90
14405;DHT22;14983;50.866;4.304;2022-09-12T06:24:21;15.30;99.90
14405;DHT22;14983;50.866;4.304;2022-09-12T06:26:50;15.30;99.90
14405;DHT22;14983;50.866;4.304;2022-09-12T06:29:18;15.40;99.90
14405;DHT22;14983;50.866;4.304;2022-09-12T06:31:46;15.40;99.90
14405;DHT22;14983;50.866;4.304;2022-09-12T06:34:16;15.40;99.90
14405;DHT22;14983;50.866;4.304;2022-09-12T06:36:47;15.40;99.90
14405;DHT22;14983;50.866;4.304;2022-09-12T06:39:18;15.60;99.90
14405;DHT22;14983;50.866;4.304;2022-09-12T06:41:45;15.70;99.90
14405;DHT22;14983;50.866;4.304;2022-09-12T06:44:14;15.90;99.90
14405;DHT22;14983;50.866;4.304;2022-09-12T06:46:41;16.10;99.90
14405;DHT22;14983;50.866;4.304;2022-09-12T06:49:09;16.50;99.90
14405;DHT22;14983;50.866;4.304;2022-09-12T06:51:37;16.70;99.90
14405;DHT22;14983;50.866;4.304;2022-09-12T06:54:07;16.90;99.90
14405;DHT22;14983;50.866;4.304;2022-09-12T06:56:40;17.30;99.90
14405;DHT22;14983;50.866;4.304;2022-09-12T06:59:07;17.50;99.90
14405;DHT22;14983;50.866;4.304;2022-09-12T07:01:34;17.80;99.90
14405;DHT22;14983;50.866;4.304;2022-09-12T07:04:02;17.70;99.90
14405;DHT22;14983;50.866;4.304;2022-09-12T07:06:34;17.50;99.90
14405;DHT22;14983;50.866;4.304;2022-09-12T07:09:02;17.60;99.90
14405;DHT22;14983;50.866;4.304;2022-09-12T07:11:31;17.30;99.90
14405;DHT22;14983;50.866;4.304;2022-09-12T07:14:03;17.20;99.90
14405;DHT22;14983;50.866;4.304;2022-09-12T07:16:30;17.20;99.90
14405;DHT22;14983;50.866;4.304;2022-09-12T07:18:59;17.20;99.90
14405;DHT22;14983;50.866;4.304;2022-09-12T07:21:26;17.30;99.90
14405;DHT22;14983;50.866;4.304;2022-09-12T07:23:54;17.60;99.90
14405;DHT22;14983;50.866;4.304;2022-09-12T07:26:23;17.60;99.90
14405;DHT22;14983;50.866;4.304;2022-09-12T07:28:52;17.60;99.90
14405;DHT22;14983;50.866;4.304;2022-09-12T07:31:23;17.70;99.90
14405;DHT22;14983;50.866;4.304;2022-09-12T07:33:50;17.80;99.90
14405;DHT22;14983;50.866;4.304;2022-09-12T07:36:22;17.90;64.90
14405;DHT22;14983;50.866;4.304;2022-09-12T07:38:53;18.00;23.20
14405;DHT22;14983;50.866;4.304;2022-09-12T07:41:22;18.00;90.90
14405;DHT22;14983;50.866;4.304;2022-09-12T07:43:51;18.20;30.60
14405;DHT22;14983;50.866;4.304;2022-09-12T07:46:19;18.30;1.00
14405;DHT22;14983;50.866;4.304;2022-09-12T07:49:04;18.30;1.00
14405;DHT22;14983;50.866;4.304;2022-09-12T07:51:32;18.30;1.00
14405;DHT22;14983;50.866;4.304;2022-09-12T07:53:59;18.40;99.90
14405;DHT22;14983;50.866;4.304;2022-09-12T07:56:26;18.70;1.00
14405;DHT22;14983;50.866;4.304;2022-09-12T07:58:54;18.30;99.90
14405;DHT22;14983;50.866;4.304;2022-09-12T08:01:22;18.50;1.00
14405;DHT22;14983;50.866;4.304;2022-09-12T08:03:53;18.60;1.00
14405;DHT22;14983;50.866;4.304;2022-09-12T08:06:24;18.60;1.00
14405;DHT22;14983;50.866;4.304;2022-09-12T08:08:53;18.70;1.00
14405;DHT22;14983;50.866;4.304;2022-09-12T08:11:21;18.70;99.90
14405;DHT22;14983;50.866;4.304;2022-09-12T08:13:49;18.70;99.90
14405;DHT22;14983;50.866;4.304;2022-09-12T08:16:24;18.80;1.00
14405;DHT22;14983;50.866;4.304;2022-09-12T08:18:59;19.00;1.00
14405;DHT22;14983;50.866;4.304;2022-09-12T08:21:32;19.10;99.90
14405;DHT22;14983;50.866;4.304;2022-09-12T08:24:02;19.30;1.00
14405;DHT22;14983;50.866;4.304;2022-09-12T08:26:32;19.30;99.90
14405;DHT22;14983;50.866;4.304;2022-09-12T08:29:00;19.40;99.90
14405;DHT22;14983;50.866;4.304;2022-09-12T08:31:30;19.40;1.00
14405;DHT22;14983;50.866;4.304;2022-09-12T08:34:03;19.40;99.90
14405;DHT22;14983;50.866;4.304;2022-09-12T08:36:34;19.50;1.00
14405;DHT22;14983;50.866;4.304;2022-09-12T08:39:03;19.50;1.00
14405;DHT22;14983;50.866;4.304;2022-09-12T08:41:39;19.70;1.00
14405;DHT22;14983;50.866;4.304;2022-09-12T08:44:36;19.50;1.00
14405;DHT22;14983;50.866;4.304;2022-09-12T08:47:18;19.60;1.00
14405;DHT22;14983;50.866;4.304;2022-09-12T08:49:52;19.70;1.00
14405;DHT22;14983;50.866;4.304;2022-09-12T08:52:26;20.20;1.00
14405;DHT22;14983;50.866;4.304;2022-09-12T08:54:55;20.10;99.90
14405;DHT22;14983;50.866;4.304;2022-09-12T08:57:23;20.10;99.90
14405;DHT22;14983;50.866;4.304;2022-09-12T08:59:50;20.20;99.90
14405;DHT22;14983;50.866;4.304;2022-09-12T09:02:36;20.20;99.90
14405;DHT22;14983;50.866;4.304;2022-09-12T09:05:17;20.30;1.00
14405;DHT22;14983;50.866;4.304;2022-09-12T09:08:13;20.40;99.90
14405;DHT22;14983;50.866;4.304;2022-09-12T09:10:47;20.30;1.00
14405;DHT22;14983;50.866;4.304;2022-09-12T09:13:30;20.30;1.00
14405;DHT22;14983;50.866;4.304;2022-09-12T09:16:25;20.30;1.00
14405;DHT22;14983;50.866;4.304;2022-09-12T09:18:57;20.50;99.90
14405;DHT22;14983;50.866;4.304;2022-09-12T09:21:30;20.60;99.90
14405;DHT22;14983;50.866;4.304;2022-09-12T09:24:03;20.70;1.00
14405;DHT22;14983;50.866;4.304;2022-09-12T09:26:39;20.70;99.90
14405;DHT22;14983;50.866;4.304;2022-09-12T09:29:16;20.50;99.90
14405;DHT22;14983;50.866;4.304;2022-09-12T09:31:47;20.70;99.90
14405;DHT22;14983;50.866;4.304;2022-09-12T09:34:18;20.90;99.90
14405;DHT22;14983;50.866;4.304;2022-09-12T09:36:51;21.10;99.90
14405;DHT22;14983;50.866;4.304;2022-09-12T09:39:30;21.10;1.00
14405;DHT22;14983;50.866;4.304;2022-09-12T09:42:13;21.90;1.00
14405;DHT22;14983;50.866;4.304;2022-09-12T09:44:44;21.10;1.00
14405;DHT22;14983;50.866;4.304;2022-09-12T09:47:13;21.20;1.00
14405;DHT22;14983;50.866;4.304;2022-09-12T09:49:41;21.30;1.00
14405;DHT22;14983;50.866;4.304;2022-09-12T09:52:14;21.50;1.00
14405;DHT22;14983;50.866;4.304;2022-09-12T09:54:48;21.50;1.00
14405;DHT22;14983;50.866;4.304;2022-09-12T09:57:39;21.40;1.00
14405;DHT22;14983;50.866;4.304;2022-09-12T10:00:24;21.60;99.90
14405;DHT22;14983;50.866;4.304;2022-09-12T10:03:00;21.60;99.90
14405;DHT22;14983;50.866;4.304;2022-09-12T10:05:29;21.60;46.90
14405;DHT22;14983;50.866;4.304;2022-09-12T10:07:57;21.70;1.00
14405;DHT22;14983;50.866;4.304;2022-09-12T10:10:26;21.90;1.00
14405;DHT22;14983;50.866;4.304;2022-09-12T10:13:06;21.90;1.00
14405;DHT22;14983;50.866;4.304;2022-09-12T10:15:35;21.90;1.00
14405;DHT22;14983;50.866;4.304;2022-09-12T10:18:02;22.10;1.00
14405;DHT22;14983;50.866;4.304;2022-09-12T10:20:33;22.20;1.00
14405;DHT22;14983;50.866;4.304;2022-09-12T10:23:19;22.50;1.00
14405;DHT22;14983;50.866;4.304;2022-09-12T10:25:55;22.40;1.00
14405;DHT22;14983;50.866;4.304;2022-09-12T10:28:27;22.10;1.00
14405;DHT22;14983;50.866;4.304;2022-09-12T10:30:55;22.10;8.80
14405;DHT22;14983;50.866;4.304;2022-09-12T10:33:27;21.90;1.00
14405;DHT22;14983;50.866;4.304;2022-09-12T10:35:56;22.10;1.00
14405;DHT22;14983;50.866;4.304;2022-09-12T10:38:25;22.20;1.00
14405;DHT22;14983;50.866;4.304;2022-09-12T10:40:59;22.50;1.00
14405;DHT22;14983;50.866;4.304;2022-09-12T10:43:29;22.70;1.00
14405;DHT22;14983;50.866;4.304;2022-09-12T10:45:58;22.40;1.00
14405;DHT22;14983;50.866;4.304;2022-09-12T10:48:36;22.40;1.00
14405;DHT22;14983;50.866;4.304;2022-09-12T10:51:03;22.40;1.00
14405;DHT22;14983;50.866;4.304;2022-09-12T10:53:38;22.40;1.00
14405;DHT22;14983;50.866;4.304;2022-09-12T10:56:09;22.40;1.00
14405;DHT22;14983;50.866;4.304;2022-09-12T10:59:02;22.60;1.00
14405;DHT22;14983;50.866;4.304;2022-09-12T11:01:39;22.70;1.00
14405;DHT22;14983;50.866;4.304;2022-09-12T11:04:25;22.90;1.00
14405;DHT22;14983;50.866;4.304;2022-09-12T11:07:20;23.30;1.00
14405;DHT22;14983;50.866;4.304;2022-09-12T11:09:55;23.30;99.90
14405;DHT22;14983;50.866;4.304;2022-09-12T11:12:31;23.40;99.90
14405;DHT22;14983;50.866;4.304;2022-09-12T11:15:16;23.40;99.90
14405;DHT22;14983;50.866;4.304;2022-09-12T11:17:55;23.40;99.90
14405;DHT22;14983;50.866;4.304;2022-09-12T11:26:21;23.50;99.90
14405;DHT22;14983;50.866;4.304;2022-09-12T11:28:59;23.50;99.90
14405;DHT22;14983;50.866;4.304;2022-09-12T11:31:53;23.70;99.90
14405;DHT22;14983;50.866;4.304;2022-09-12T11:34:31;23.70;99.90
14405;DHT22;14983;50.866;4.304;2022-09-12T11:37:11;23.70;99.90
14405;DHT22;14983;50.866;4.304;2022-09-12T11:39:43;23.50;99.90
14405;DHT22;14983;50.866;4.304;2022-09-12T11:42:15;23.70;99.90
14405;DHT22;14983;50.866;4.304;2022-09-12T11:44:52;23.80;99.90
14405;DHT22;14983;50.866;4.304;2022-09-12T11:47:22;24.30;75.70
14405;DHT22;14983;50.866;4.304;2022-09-12T11:49:52;24.40;14.70
14405;DHT22;14983;50.866;4.304;2022-09-12T11:52:21;25.20;1.00
14405;DHT22;14983;50.866;4.304;2022-09-12T11:54:51;25.60;1.00
14405;DHT22;14983;50.866;4.304;2022-09-12T11:57:27;27.20;1.00
14405;DHT22;14983;50.866;4.304;2022-09-12T12:00:01;28.70;99.90
14405;DHT22;14983;50.866;4.304;2022-09-12T12:02:30;28.60;99.90
14405;DHT22;14983;50.866;4.304;2022-09-12T12:05:08;29.20;99.90
14405;DHT22;14983;50.866;4.304;2022-09-12T12:07:45;30.10;99.90
14405;DHT22;14983;50.866;4.304;2022-09-12T12:10:23;30.00;99.90
14405;DHT22;14983;50.866;4.304;2022-09-12T12:12:52;29.20;99.90
14405;DHT22;14983;50.866;4.304;2022-09-12T12:15:23;28.90;99.90
14405;DHT22;14983;50.866;4.304;2022-09-12T12:18:03;28.80;99.90
14405;DHT22;14983;50.866;4.304;2022-09-12T12:20:30;29.20;99.90
14405;DHT22;14983;50.866;4.304;2022-09-12T12:22:58;29.40;99.90
14405;DHT22;14983;50.866;4.304;2022-09-12T12:25:49;29.20;99.90
14405;DHT22;14983;50.866;4.304;2022-09-12T12:31:21;28.70;99.90
14405;DHT22;14983;50.866;4.304;2022-09-12T12:34:20;29.40;99.90
14405;DHT22;14983;50.866;4.304;2022-09-12T12:36:48;30.00;99.90
14405;DHT22;14983;50.866;4.304;2022-09-12T12:46:01;30.50;99.90
14405;DHT22;14983;50.866;4.304;2022-09-12T12:48:49;31.80;99.90
14405;DHT22;14983;50.866;4.304;2022-09-12T12:51:41;30.10;99.90
14405;DHT22;14983;50.866;4.304;2022-09-12T12:57:17;29.30;99.90
14405;DHT22;14983;50.866;4.304;2022-09-12T12:59:48;29.30;99.90
14405;DHT22;14983;50.866;4.304;2022-09-12T13:02:22;29.10;99.90
14405;DHT22;14983;50.866;4.304;2022-09-12T13:04:56;28.50;99.90
14405;DHT22;14983;50.866;4.304;2022-09-12T13:07:31;28.70;99.90
14405;DHT22;14983;50.866;4.304;2022-09-12T13:10:01;29.30;99.90
14405;DHT22;14983;50.866;4.304;2022-09-12T13:12:30;29.00;99.90
14405;DHT22;14983;50.866;4.304;2022-09-12T13:14:59;29.50;99.90
14405;DHT22;14983;50.866;4.304;2022-09-12T13:17:33;31.20;99.90
14405;DHT22;14983;50.866;4.304;2022-09-12T13:20:20;31.50;99.90
14405;DHT22;14983;50.866;4.304;2022-09-12T13:22:51;31.50;99.90
14405;DHT22;14983;50.866;4.304;2022-09-12T13:25:24;31.60;99.90
14405;DHT22;14983;50.866;4.304;2022-09-12T13:28:06;31.90;99.90
14405;DHT22;14983;50.866;4.304;2022-09-12T13:30:43;32.50;99.90
14405;DHT22;14983;50.866;4.304;2022-09-12T13:33:19;31.30;99.90
14405;DHT22;14983;50.866;4.304;2022-09-12T13:39:08;29.90;99.90
14405;DHT22;14983;50.866;4.304;2022-09-12T13:44:38;30.60;99.90
14405;DHT22;14983;50.866;4.304;2022-09-12T13:47:11;30.60;99.90
14405;DHT22;14983;50.866;4.304;2022-09-12T13:49:39;31.20;99.90
14405;DHT22;14983;50.866;4.304;2022-09-12T13:52:15;31.40;99.90
14405;DHT22;14983;50.866;4.304;2022-09-12T13:54:44;30.20;99.90
14405;DHT22;14983;50.866;4.304;2022-09-12T13:57:30;29.70;99.90
14405;DHT22;14983;50.866;4.304;2022-09-12T14:00:03;30.10;99.90
14405;DHT22;14983;50.866;4.304;2022-09-12T14:02:34;30.20;99.90
14405;DHT22;14983;50.866;4.304;2022-09-12T14:05:11;30.10;99.90
14405;DHT22;14983;50.866;4.304;2022-09-12T14:07:48;30.00;99.90
14405;DHT22;14983;50.866;4.304;2022-09-12T14:10:25;30.60;99.90
14405;DHT22;14983;50.866;4.304;2022-09-12T14:12:54;30.80;99.90
14405;DHT22;14983;50.866;4.304;2022-09-12T14:15:24;31.20;99.90
14405;DHT22;14983;50.866;4.304;2022-09-12T14:17:55;31.40;99.90
14405;DHT22;14983;50.866;4.304;2022-09-12T14:20:26;32.00;99.90
14405;DHT22;14983;50.866;4.304;2022-09-12T14:23:00;32.70;99.90
14405;DHT22;14983;50.866;4.304;2022-09-12T14:25:35;31.10;99.90
14405;DHT22;14983;50.866;4.304;2022-09-12T14:28:04;30.10;99.90
14405;DHT22;14983;50.866;4.304;2022-09-12T14:30:33;30.20;99.90
14405;DHT22;14983;50.866;4.304;2022-09-12T14:33:18;30.50;99.90
14405;DHT22;14983;50.866;4.304;2022-09-12T14:35:49;31.00;99.90
14405;DHT22;14983;50.866;4.304;2022-09-12T14:38:33;31.80;99.90
14405;DHT22;14983;50.866;4.304;2022-09-12T14:41:02;31.50;99.90
14405;DHT22;14983;50.866;4.304;2022-09-12T14:43:33;32.00;99.90
14405;DHT22;14983;50.866;4.304;2022-09-12T14:46:02;31.10;99.90
14405;DHT22;14983;50.866;4.304;2022-09-12T14:48:34;30.30;99.90
14405;DHT22;14983;50.866;4.304;2022-09-12T14:51:05;30.70;99.90
14405;DHT22;14983;50.866;4.304;2022-09-12T14:53:36;30.60;99.90
14405;DHT22;14983;50.866;4.304;2022-09-12T14:56:08;30.70;99.90
14405;DHT22;14983;50.866;4.304;2022-09-12T14:58:36;30.80;99.90
14405;DHT22;14983;50.866;4.304;2022-09-12T15:01:24;30.70;99.90
14405;DHT22;14983;50.866;4.304;2022-09-12T15:03:53;31.20;99.90
14405;DHT22;14983;50.866;4.304;2022-09-12T15:06:23;31.50;99.90
14405;DHT22;14983;50.866;4.304;2022-09-12T15:08:53;31.50;99.90
14405;DHT22;14983;50.866;4.304;2022-09-12T15:11:21;32.30;99.90
14405;DHT22;14983;50.866;4.304;2022-09-12T15:13:51;32.40;99.90
14405;DHT22;14983;50.866;4.304;2022-09-12T15:16:18;32.10;99.90
14405;DHT22;14983;50.866;4.304;2022-09-12T15:18:45;31.70;99.90
14405;DHT22;14983;50.866;4.304;2022-09-12T15:21:16;31.70;99.90
14405;DHT22;14983;50.866;4.304;2022-09-12T15:23:46;32.20;99.90
14405;DHT22;14983;50.866;4.304;2022-09-12T15:26:17;32.70;99.90
14405;DHT22;14983;50.866;4.304;2022-09-12T15:28:45;32.70;99.90
14405;DHT22;14983;50.866;4.304;2022-09-12T15:31:19;32.60;99.90
14405;DHT22;14983;50.866;4.304;2022-09-12T15:33:48;31.40;99.90
14405;DHT22;14983;50.866;4.304;2022-09-12T15:36:17;31.30;99.90
14405;DHT22;14983;50.866;4.304;2022-09-12T15:38:47;31.10;99.90
14405;DHT22;14983;50.866;4.304;2022-09-12T15:41:20;31.10;99.90
14405;DHT22;14983;50.866;4.304;2022-09-12T15:43:50;30.80;99.90
14405;DHT22;14983;50.866;4.304;2022-09-12T15:46:18;30.60;99.90
14405;DHT22;14983;50.866;4.304;2022-09-12T15:48:46;30.70;99.90
14405;DHT22;14983;50.866;4.304;2022-09-12T15:51:14;30.80;99.90
14405;DHT22;14983;50.866;4.304;2022-09-12T15:53:43;31.20;99.90
14405;DHT22;14983;50.866;4.304;2022-09-12T15:56:11;31.00;99.90
14405;DHT22;14983;50.866;4.304;2022-09-12T15:58:40;31.10;99.90
14405;DHT22;14983;50.866;4.304;2022-09-12T16:01:09;30.80;99.90
14405;DHT22;14983;50.866;4.304;2022-09-12T16:03:37;30.90;99.90
14405;DHT22;14983;50.866;4.304;2022-09-12T16:06:04;30.40;99.90
14405;DHT22;14983;50.866;4.304;2022-09-12T16:08:33;29.50;99.90
14405;DHT22;14983;50.866;4.304;2022-09-12T16:11:03;28.90;99.90
14405;DHT22;14983;50.866;4.304;2022-09-12T16:13:31;28.40;99.90
14405;DHT22;14983;50.866;4.304;2022-09-12T16:15:59;28.20;99.90
14405;DHT22;14983;50.866;4.304;2022-09-12T16:18:27;28.40;99.90
14405;DHT22;14983;50.866;4.304;2022-09-12T16:20:55;28.50;99.90
14405;DHT22;14983;50.866;4.304;2022-09-12T16:23:23;28.20;99.90
14405;DHT22;14983;50.866;4.304;2022-09-12T16:25:56;28.00;99.90
14405;DHT22;14983;50.866;4.304;2022-09-12T16:28:23;27.90;99.90
14405;DHT22;14983;50.866;4.304;2022-09-12T16:30:54;27.90;99.90
14405;DHT22;14983;50.866;4.304;2022-09-12T16:33:25;27.90;99.90